Time;durP1;ratioP1;P1;durP2;ratioP2;P2;SDS_P1;SDS_P2;PMS_P1;PMS_P2;Temp;Humidity;BMP_temperature;BMP_pressure;BME280_temperature;BME280_humidity;BME280_pressure;Samples;Min_cycle;Max_cycle;Signal;HPM_P1;HPM_P2
2022/06/14 00:03:20;;;;;;;8.90;4.20;;;;;;;-146.19;100.00;58918.88;5020366;28;20061;-45
2022/06/14 00:05:49;;;;;;;6.53;3.70;;;;;;;-146.19;100.00;58918.88;5024246;28;20088;-51
2022/06/14 00:08:19;;;;;;;5.53;3.50;;;;;;;-146.19;100.00;58918.88;5023372;28;20080;-50
2022/06/14 00:10:50;;;;;;;8.65;4.47;;;;;;;-146.19;100.00;58918.88;5027139;28;20072;-52
2022/06/14 00:13:19;;;;;;;11.45;4.00;;;;;;;-146.19;100.00;58918.88;5023547;28;20053;-44
2022/06/14 00:15:48;;;;;;;8.63;3.97;;;;;;;-146.19;100.00;58918.88;5023669;28;20109;-44
2022/06/14 00:18:17;;;;;;;6.85;3.85;;;;;;;-146.19;100.00;58918.88;5025438;28;20061;-43
2022/06/14 00:20:48;;;;;;;5.72;3.90;;;;;;;-146.19;100.00;58918.88;5026860;28;20096;-43
2022/06/14 00:23:18;;;;;;;8.20;4.10;;;;;;;-146.19;100.00;58918.88;5023626;28;20081;-49
2022/06/14 00:25:48;;;;;;;7.45;4.30;;;;;;;-146.19;100.00;58918.88;5026455;28;20061;-46
2022/06/14 00:28:17;;;;;;;7.53;4.20;;;;;;;-146.19;100.00;58918.88;5025485;28;20558;-45
2022/06/14 00:30:49;;;;;;;5.90;4.18;;;;;;;-146.19;100.00;58918.88;5027257;28;20061;-44
2022/06/14 00:33:17;;;;;;;6.60;4.03;;;;;;;-146.19;100.00;58918.88;5024684;28;20070;-48
2022/06/14 00:35:47;;;;;;;7.53;4.47;;;;;;;-146.19;100.00;58918.88;5024151;28;20077;-44
2022/06/14 00:38:16;;;;;;;10.63;4.13;;;;;;;-146.19;100.00;58918.88;5026730;28;20081;-43
2022/06/14 00:40:51;;;;;;;8.55;4.50;;;;;;;-146.19;100.00;58918.88;5028269;28;20073;-47
2022/06/14 00:43:20;;;;;;;10.73;5.07;;;;;;;-146.19;100.00;58918.88;5024777;28;20072;-45
2022/06/14 00:46:22;;;;;;;12.43;4.90;;;;;;;-146.19;100.00;58918.88;5026070;28;20103;-50
2022/06/14 00:48:56;;;;;;;9.98;5.10;;;;;;;-146.19;100.00;58918.88;5025501;28;20065;-48
2022/06/14 00:51:29;;;;;;;8.55;4.30;;;;;;;-146.19;100.00;58918.88;5025477;28;20111;-50
2022/06/14 00:54:01;;;;;;;7.53;4.57;;;;;;;-146.19;100.00;58918.88;5027024;28;20081;-50
2022/06/14 00:56:34;;;;;;;8.52;4.63;;;;;;;-146.19;100.00;58918.88;5025469;28;20093;-49
2022/06/14 00:59:08;;;;;;;7.05;4.18;;;;;;;-146.19;100.00;58918.88;5025885;28;20069;-45
2022/06/14 01:01:39;;;;;;;7.22;4.60;;;;;;;-146.19;100.00;58918.88;5025110;28;20065;-46
2022/06/14 01:04:11;;;;;;;8.75;4.68;;;;;;;-146.19;100.00;58918.88;5026953;28;20643;-45
2022/06/14 01:06:48;;;;;;;7.63;4.78;;;;;;;-146.19;100.00;58918.88;5026492;28;20061;-46
2022/06/14 01:09:19;;;;;;;7.63;4.60;;;;;;;-146.19;100.00;58918.88;5027216;28;20065;-48
2022/06/14 01:11:50;;;;;;;7.68;4.70;;;;;;;-146.19;100.00;58918.88;5027489;28;20084;-51
2022/06/14 01:14:22;;;;;;;6.85;4.45;;;;;;;-146.19;100.00;58918.88;5024617;28;20080;-47
2022/06/14 01:16:52;;;;;;;10.15;4.32;;;;;;;-146.19;100.00;58918.88;5024298;28;20064;-48
2022/06/14 01:19:23;;;;;;;6.87;4.43;;;;;;;-146.19;100.00;58918.88;5024944;28;20530;-47
2022/06/14 01:21:55;;;;;;;8.80;4.78;;;;;;;-146.19;100.00;58918.88;5025814;28;20064;-45
2022/06/14 01:24:23;;;;;;;9.52;4.95;;;;;;;-146.19;100.00;58918.88;5026052;28;20065;-49
2022/06/14 01:26:52;;;;;;;9.93;5.25;;;;;;;-146.19;100.00;58918.88;5024014;28;20107;-48
2022/06/14 01:29:20;;;;;;;12.40;5.10;;;;;;;-146.19;100.00;58918.88;5023960;28;20077;-49
2022/06/14 01:31:50;;;;;;;9.10;4.60;;;;;;;-146.19;100.00;58918.88;5026706;28;20064;-46
2022/06/14 01:34:19;;;;;;;7.57;4.78;;;;;;;-146.19;100.00;58918.88;5025276;28;20072;-43
2022/06/14 01:36:48;;;;;;;10.80;5.20;;;;;;;-146.19;100.00;58918.88;5025891;28;20061;-46
2022/06/14 01:39:19;;;;;;;6.13;4.53;;;;;;;-146.19;100.00;58918.88;5022578;28;20445;-46
2022/06/14 01:41:56;;;;;;;10.52;5.15;;;;;;;-146.19;100.00;58918.88;5025194;28;20089;-47
2022/06/14 01:44:35;;;;;;;7.57;4.82;;;;;;;-146.19;100.00;58918.88;5026910;28;20152;-49
2022/06/14 01:47:16;;;;;;;5.60;4.50;;;;;;;-146.19;100.00;58918.88;5021736;28;20714;-46
2022/06/14 01:52:56;;;;;;;5.65;4.65;;;;;;;-146.19;100.00;58918.88;5023646;28;20064;-48
2022/06/14 01:55:34;;;;;;;7.50;4.88;;;;;;;-146.19;100.00;58918.88;5022655;28;20472;-46
2022/06/14 01:58:07;;;;;;;7.97;4.75;;;;;;;-146.19;100.00;58918.88;5024436;28;20073;-48
2022/06/14 02:00:38;;;;;;;9.23;4.90;;;;;;;-146.19;100.00;58918.88;5023679;28;20062;-51
2022/06/14 02:06:05;;;;;;;7.18;4.72;;;;;;;-146.19;100.00;58918.88;5024413;28;20587;-44
2022/06/14 02:08:38;;;;;;;7.35;4.35;;;;;;;-146.19;100.00;58918.88;5024821;28;20125;-47
2022/06/14 02:11:12;;;;;;;5.38;4.28;;;;;;;-146.19;100.00;58918.88;5003963;28;20288;-48
2022/06/14 02:13:45;;;;;;;9.27;4.43;;;;;;;-146.19;100.00;58918.88;5018322;28;20066;-45
2022/06/14 02:16:19;;;;;;;5.55;4.68;;;;;;;-146.19;100.00;58918.88;5023920;28;20547;-47
2022/06/14 02:18:51;;;;;;;5.70;4.45;;;;;;;-146.19;100.00;58918.88;5023902;28;20072;-45
2022/06/14 02:21:24;;;;;;;6.60;4.38;;;;;;;-146.19;100.00;58918.88;5026704;28;20062;-46
2022/06/14 02:23:58;;;;;;;8.68;4.00;;;;;;;-146.19;100.00;58918.88;5021154;28;20466;-46
2022/06/14 02:26:31;;;;;;;7.43;4.28;;;;;;;-146.19;100.00;58918.88;5022351;28;20514;-47
2022/06/14 02:29:04;;;;;;;9.00;4.47;;;;;;;-146.19;100.00;58918.88;5027194;28;20076;-50
2022/06/14 02:31:37;;;;;;;5.70;4.65;;;;;;;-146.19;100.00;58918.88;5025398;28;20069;-47
2022/06/14 02:34:10;;;;;;;5.72;4.28;;;;;;;-146.19;100.00;58918.88;5019338;28;20080;-48
2022/06/14 02:36:41;;;;;;;7.07;4.93;;;;;;;-146.19;100.00;58918.88;5026761;28;20068;-48
2022/06/14 02:39:13;;;;;;;6.55;4.93;;;;;;;-146.19;100.00;58918.88;5020652;28;20053;-50
2022/06/14 02:41:47;;;;;;;9.02;4.90;;;;;;;-146.19;100.00;58918.88;5025116;28;20073;-46
2022/06/14 02:44:18;;;;;;;7.10;4.90;;;;;;;-146.19;100.00;58918.88;5024990;28;20092;-44
2022/06/14 02:46:52;;;;;;;5.93;4.65;;;;;;;-146.19;100.00;58918.88;5025709;28;20873;-44
2022/06/14 02:49:25;;;;;;;14.32;5.20;;;;;;;-146.19;100.00;58918.88;5018803;28;20083;-46
2022/06/14 02:51:56;;;;;;;6.63;4.63;;;;;;;-146.19;100.00;58918.88;5021963;28;20080;-42
2022/06/14 02:54:30;;;;;;;5.63;4.68;;;;;;;-146.19;100.00;58918.88;5023644;28;20068;-46
2022/06/14 02:57:02;;;;;;;7.50;4.68;;;;;;;-146.19;100.00;58918.88;5021496;28;20077;-46
2022/06/14 02:59:34;;;;;;;6.13;5.00;;;;;;;-146.19;100.00;58918.88;5021355;28;20081;-50
2022/06/14 03:02:07;;;;;;;6.70;4.90;;;;;;;-146.19;100.00;58918.88;5025739;28;20068;-47
2022/06/14 03:04:40;;;;;;;6.00;4.97;;;;;;;-146.19;100.00;58918.88;5022112;28;20093;-48
2022/06/14 03:07:13;;;;;;;7.22;5.10;;;;;;;-146.19;100.00;58918.88;5024572;28;20068;-47
2022/06/14 03:09:42;;;;;;;7.80;5.05;;;;;;;-146.19;100.00;58918.88;5022384;28;20065;-46
2022/06/14 03:12:20;;;;;;;8.02;5.10;;;;;;;-146.19;100.00;58918.88;5021295;28;20065;-42
2022/06/14 03:15:01;;;;;;;16.85;5.93;;;;;;;-146.19;100.00;58918.88;5024408;28;20077;-50
2022/06/14 03:17:40;;;;;;;14.52;6.40;;;;;;;-146.19;100.00;58918.88;5025154;28;20081;-47
2022/06/14 03:20:10;;;;;;;20.65;6.55;;;;;;;-146.19;100.00;58918.88;5000271;28;20642;-44
2022/06/14 03:22:44;;;;;;;16.90;6.15;;;;;;;-146.19;100.00;58918.88;5021077;28;20065;-46
2022/06/14 03:25:18;;;;;;;20.45;5.78;;;;;;;-146.19;100.00;58918.88;5022702;28;20065;-50
2022/06/14 03:27:52;;;;;;;10.63;5.25;;;;;;;-146.19;100.00;58918.88;5024735;28;20061;-43
2022/06/14 03:30:23;;;;;;;10.55;5.18;;;;;;;-146.19;100.00;58918.88;5020748;28;20073;-45
2022/06/14 03:32:56;;;;;;;13.57;5.30;;;;;;;-146.19;100.00;58918.88;5020966;28;20077;-43
2022/06/14 03:35:29;;;;;;;12.18;4.88;;;;;;;-146.19;100.00;58918.88;5024076;28;20054;-43
2022/06/14 03:38:00;;;;;;;7.32;4.00;;;;;;;-146.19;100.00;58918.88;5022633;28;20471;-50
2022/06/14 03:40:29;;;;;;;12.50;4.60;;;;;;;-146.19;100.00;58918.88;5022024;28;20080;-49
2022/06/14 03:43:00;;;;;;;7.35;4.53;;;;;;;-146.19;100.00;58918.88;5025963;28;20076;-52
2022/06/14 03:45:34;;;;;;;7.45;4.50;;;;;;;-146.19;100.00;58918.88;5027931;28;20065;-45
2022/06/14 03:48:05;;;;;;;9.63;5.00;;;;;;;-146.19;100.00;58918.88;5026735;28;20068;-44
2022/06/14 03:50:35;;;;;;;;;;;;;;;-146.19;100.00;58918.88;5028498;28;20080;-44
2022/06/14 03:53:18;;;;;;;6.85;4.75;;;;;;;-146.19;100.00;58918.88;5024878;28;20214;-48
2022/06/14 03:56:00;;;;;;;5.97;4.50;;;;;;;-146.19;100.00;58918.88;5027715;28;20064;-46
2022/06/14 03:58:43;;;;;;;4.50;4.10;;;;;;;-146.19;100.00;58918.88;5026957;28;20069;-48
2022/06/14 04:01:14;;;;;;;5.50;4.00;;;;;;;-146.19;100.00;58918.88;5021262;28;20073;-41
2022/06/14 04:03:57;;;;;;;4.28;3.42;;;;;;;-146.19;100.00;58918.88;5027148;28;20069;-45
2022/06/14 04:06:36;;;;;;;9.73;3.20;;;;;;;-146.19;100.00;58918.88;5025680;28;20080;-45
2022/06/14 04:09:16;;;;;;;4.90;3.30;;;;;;;-146.19;100.00;58918.88;5025644;28;20061;-48
2022/06/14 04:11:49;;;;;;;4.03;3.30;;;;;;;-146.19;100.00;58918.88;5027637;28;20263;-51
2022/06/14 04:14:40;;;;;;;9.10;4.03;;;;;;;-146.19;100.00;58918.88;5026274;28;20525;-48
2022/06/14 04:17:17;;;;;;;5.78;3.85;;;;;;;-146.19;100.00;58918.88;5024098;28;20511;-48
2022/06/14 04:19:57;;;;;;;7.85;4.60;;;;;;;-146.19;100.00;58918.88;5026161;28;20095;-47
2022/06/14 04:22:33;;;;;;;8.43;5.60;;;;;;;-146.19;100.00;58918.88;5027463;28;20069;-47
2022/06/14 04:25:05;;;;;;;7.20;5.88;;;;;;;-146.19;100.00;58918.88;5027347;28;20662;-44
2022/06/14 04:27:37;;;;;;;7.43;4.03;;;;;;;-146.19;100.00;58918.88;5027780;28;20164;-45
2022/06/14 04:30:11;;;;;;;7.32;4.32;;;;;;;-146.19;100.00;58918.88;5028064;28;20061;-48
2022/06/14 04:32:44;;;;;;;6.68;4.32;;;;;;;-146.19;100.00;58918.88;5027274;28;20073;-48
2022/06/14 04:35:16;;;;;;;5.28;4.78;;;;;;;-146.19;100.00;58918.88;5026230;28;20083;-46
2022/06/14 04:37:46;;;;;;;5.60;5.00;;;;;;;-146.19;100.00;58918.88;5024357;28;20463;-52
2022/06/14 04:40:18;;;;;;;6.32;3.72;;;;;;;-146.19;100.00;58918.88;5026494;28;20095;-46
2022/06/14 04:42:51;;;;;;;6.85;4.68;;;;;;;-146.19;100.00;58918.88;5027689;28;20068;-47
2022/06/14 04:45:25;;;;;;;8.55;4.07;;;;;;;-146.19;100.00;58918.88;5024874;28;20060;-46
2022/06/14 04:47:57;;;;;;;6.75;3.58;;;;;;;-146.19;100.00;58918.88;5024376;28;20436;-48
2022/06/14 04:50:30;;;;;;;7.30;3.60;;;;;;;-146.19;100.00;58918.88;5039986;28;20073;-47
2022/06/14 04:53:02;;;;;;;6.20;3.15;;;;;;;-146.19;100.00;58918.88;5026513;28;20061;-45
2022/06/14 04:55:34;;;;;;;8.00;3.22;;;;;;;-146.19;100.00;58918.88;5025396;28;20053;-51
2022/06/14 04:58:07;;;;;;;5.28;3.40;;;;;;;-146.19;100.00;58918.88;5023332;28;20065;-48
2022/06/14 05:00:38;;;;;;;4.85;3.30;;;;;;;-146.19;100.00;58918.88;5023102;28;20494;-50
2022/06/14 05:03:08;;;;;;;5.15;3.53;;;;;;;-146.19;100.00;58918.88;5022350;28;20057;-46
2022/06/14 05:05:39;;;;;;;5.55;3.70;;;;;;;-146.19;100.00;58918.88;5024188;28;20077;-50
2022/06/14 05:08:11;;;;;;;5.78;4.05;;;;;;;-146.19;100.00;58918.88;5022619;28;20060;-47
2022/06/14 05:10:45;;;;;;;5.28;3.60;;;;;;;-146.19;100.00;58918.88;5021599;28;20069;-49
2022/06/14 05:13:18;;;;;;;7.00;3.40;;;;;;;-146.19;100.00;58918.88;5023705;28;20053;-47
2022/06/14 05:15:51;;;;;;;7.97;3.78;;;;;;;-146.19;100.00;58918.88;5026159;28;20064;-44
2022/06/14 05:18:23;;;;;;;4.70;3.67;;;;;;;-146.19;100.00;58918.88;5025141;28;20072;-48
2022/06/14 05:20:55;;;;;;;7.30;4.05;;;;;;;-146.19;100.00;58918.88;5021850;28;20089;-47
2022/06/14 05:23:27;;;;;;;5.70;3.97;;;;;;;-146.19;100.00;58918.88;5026998;28;20104;-48
2022/06/14 05:26:26;;;;;;;8.20;4.45;;;;;;;-146.19;100.00;58918.88;5020700;28;20494;-45
2022/06/14 05:29:05;;;;;;;7.68;4.55;;;;;;;-146.19;100.00;58918.88;5023053;28;20084;-43
2022/06/14 05:31:40;;;;;;;6.28;4.50;;;;;;;-146.19;100.00;58918.88;5023509;28;20071;-45
2022/06/14 05:34:15;;;;;;;6.05;4.40;;;;;;;-146.19;100.00;58918.88;4978391;28;1140762;-51
2022/06/14 05:36:45;;;;;;;8.45;5.13;;;;;;;-146.19;100.00;58918.88;5021978;28;20213;-47
2022/06/14 05:39:16;;;;;;;7.72;4.95;;;;;;;-146.19;100.00;58918.88;5026289;28;20094;-48
2022/06/14 05:41:48;;;;;;;8.32;5.00;;;;;;;-146.19;100.00;58918.88;5024324;28;20089;-49
2022/06/14 05:44:21;;;;;;;8.48;5.85;;;;;;;-146.19;100.00;58918.88;5024107;28;20088;-48
2022/06/14 05:46:53;;;;;;;9.15;5.97;;;;;;;-146.19;100.00;58918.88;5027874;28;20097;-53
2022/06/14 05:49:24;;;;;;;9.68;7.05;;;;;;;-146.19;100.00;58918.88;5024932;28;20034;-51
2022/06/14 05:51:56;;;;;;;9.05;6.40;;;;;;;-146.19;100.00;58918.88;5022020;28;20080;-48
2022/06/14 05:54:28;;;;;;;9.30;5.97;;;;;;;-146.19;100.00;58918.88;5026133;28;20069;-50
2022/06/14 05:57:01;;;;;;;8.15;5.57;;;;;;;-146.19;100.00;58918.88;5019359;28;20516;-47
2022/06/14 05:59:34;;;;;;;10.40;5.82;;;;;;;-146.19;100.00;58918.88;5024500;28;20092;-51
2022/06/14 06:02:12;;;;;;;10.00;5.30;;;;;;;-146.19;100.00;58918.88;5023725;28;20077;-53
2022/06/14 06:04:46;;;;;;;9.15;4.95;;;;;;;-146.19;100.00;58918.88;5020115;28;20061;-49
2022/06/14 06:07:24;;;;;;;6.63;4.80;;;;;;;-146.19;100.00;58918.88;5024610;28;20064;-51
2022/06/14 06:09:56;;;;;;;7.35;4.43;;;;;;;-146.19;100.00;58918.88;5022995;28;20069;-47
2022/06/14 06:12:32;;;;;;;7.70;4.18;;;;;;;-146.19;100.00;58918.88;5022136;28;20073;-54
2022/06/14 06:15:03;;;;;;;10.30;4.28;;;;;;;-146.19;100.00;58918.88;5023855;28;20061;-46
2022/06/14 06:17:35;;;;;;;8.60;4.28;;;;;;;-146.19;100.00;58918.88;5025407;28;20089;-47
2022/06/14 06:20:09;;;;;;;10.32;4.72;;;;;;;-146.19;100.00;58918.88;5027116;28;20457;-47
2022/06/14 06:22:41;;;;;;;8.57;4.40;;;;;;;-146.19;100.00;58918.88;5023658;28;20457;-45
2022/06/14 06:25:13;;;;;;;11.73;4.65;;;;;;;-146.19;100.00;58918.88;5020321;28;20457;-47
2022/06/14 06:27:47;;;;;;;8.75;5.25;;;;;;;-146.19;100.00;58918.88;5019213;28;20057;-47
2022/06/14 06:30:19;;;;;;;7.63;3.88;;;;;;;-146.19;100.00;58918.88;5022552;28;20049;-46
2022/06/14 06:32:49;;;;;;;5.47;3.92;;;;;;;-146.19;100.00;58918.88;5019777;28;20054;-47
2022/06/14 06:35:17;;;;;;;7.45;3.90;;;;;;;-146.19;100.00;58918.88;5024245;28;20095;-49
2022/06/14 06:37:50;;;;;;;9.23;4.50;;;;;;;-146.19;100.00;58918.88;5024497;28;20061;-51
2022/06/14 06:40:21;;;;;;;9.00;4.63;;;;;;;-146.19;100.00;58918.88;5024746;28;20085;-47
2022/06/14 06:42:53;;;;;;;12.88;4.47;;;;;;;-146.19;100.00;58918.88;5023431;28;20037;-50
2022/06/14 06:45:23;;;;;;;10.73;4.85;;;;;;;-146.19;100.00;58918.88;5021763;28;20062;-51
2022/06/14 06:47:59;;;;;;;8.85;4.30;;;;;;;-146.19;100.00;58918.88;5021328;28;20080;-50
2022/06/14 06:50:29;;;;;;;7.15;4.43;;;;;;;-146.19;100.00;58918.88;5025907;28;20081;-47
2022/06/14 06:53:01;;;;;;;9.40;4.60;;;;;;;-146.19;100.00;58918.88;5020046;28;20088;-46
2022/06/14 06:55:40;;;;;;;9.63;4.60;;;;;;;-146.19;100.00;58918.88;5020734;28;20068;-51
2022/06/14 06:58:13;;;;;;;7.40;4.55;;;;;;;-146.19;100.00;58918.88;5023441;28;20076;-49
2022/06/14 07:00:42;;;;;;;8.55;4.60;;;;;;;-146.19;100.00;58918.88;5021120;28;20073;-43
2022/06/14 07:03:17;;;;;;;7.60;4.57;;;;;;;-146.19;100.00;58918.88;5025032;28;20061;-46
2022/06/14 07:05:49;;;;;;;9.07;5.07;;;;;;;-146.19;100.00;58918.88;5021728;28;20160;-44
2022/06/14 07:08:21;;;;;;;8.30;4.22;;;;;;;-146.19;100.00;58918.88;5018580;28;20089;-50
2022/06/14 07:10:51;;;;;;;6.97;4.07;;;;;;;-146.19;100.00;58918.88;5018418;28;20069;-47
2022/06/14 07:13:24;;;;;;;7.85;4.05;;;;;;;-146.19;100.00;58918.88;5018978;28;20507;-46
2022/06/14 07:16:03;;;;;;;7.53;4.03;;;;;;;-146.19;100.00;58918.88;5018645;28;20068;-50
2022/06/14 07:18:37;;;;;;;7.93;4.18;;;;;;;-146.19;100.00;58918.88;5020819;28;20428;-49
2022/06/14 07:21:09;;;;;;;6.97;3.90;;;;;;;-146.19;100.00;58918.88;5020661;28;20061;-45
2022/06/14 07:23:42;;;;;;;8.55;3.85;;;;;;;-146.19;100.00;58918.88;5021886;28;20045;-46
2022/06/14 07:26:19;;;;;;;9.50;4.57;;;;;;;-146.19;100.00;58918.88;5021446;28;21157;-48
2022/06/14 07:28:59;;;;;;;9.13;4.40;;;;;;;-146.19;100.00;58918.88;5043947;28;20108;-48
2022/06/14 07:31:33;;;;;;;7.53;4.38;;;;;;;-146.19;100.00;58918.88;5017606;28;20068;-48
2022/06/14 07:34:04;;;;;;;6.47;4.20;;;;;;;-146.19;100.00;58918.88;5030189;28;20503;-53
2022/06/14 07:36:42;;;;;;;7.97;4.20;;;;;;;-146.19;100.00;58918.88;5018593;28;20065;-48
2022/06/14 07:39:24;;;;;;;7.30;4.45;;;;;;;-146.19;100.00;58918.88;5020239;28;20106;-49
2022/06/14 07:42:00;;;;;;;8.45;4.40;;;;;;;-146.19;100.00;58918.88;5015751;28;20472;-49
2022/06/14 07:44:31;;;;;;;8.75;4.70;;;;;;;-146.19;100.00;58918.88;5018683;28;20081;-50
2022/06/14 07:47:05;;;;;;;12.45;4.60;;;;;;;-146.19;100.00;58918.88;5020596;28;20448;-47
2022/06/14 07:49:54;;;;;;;10.00;4.72;;;;;;;-146.19;100.00;58918.88;5016713;28;20062;-47
2022/06/14 07:52:26;;;;;;;10.82;4.63;;;;;;;-146.19;100.00;58918.88;5019800;28;20061;-48
2022/06/14 07:55:00;;;;;;;9.25;4.47;;;;;;;-146.19;100.00;58918.88;5020876;28;20061;-44
2022/06/14 07:57:31;;;;;;;9.30;4.30;;;;;;;-146.19;100.00;58918.88;5015984;28;20065;-44
2022/06/14 08:02:49;;;;;;;9.43;4.35;;;;;;;-146.19;100.00;58918.88;5019956;28;20477;-50
2022/06/14 08:05:22;;;;;;;8.55;3.95;;;;;;;-146.19;100.00;58918.88;5024221;28;20550;-50
2022/06/14 08:07:52;;;;;;;7.15;3.78;;;;;;;-146.19;100.00;58918.88;5018024;28;20069;-43
2022/06/14 08:10:23;;;;;;;8.23;4.05;;;;;;;-146.19;100.00;58918.88;5014484;28;20069;-48
2022/06/14 08:12:54;;;;;;;9.52;3.92;;;;;;;-146.19;100.00;58918.88;5027646;28;20092;-50
2022/06/14 08:15:26;;;;;;;6.22;3.50;;;;;;;-146.19;100.00;58918.88;5028188;28;20068;-46
2022/06/14 08:17:58;;;;;;;9.90;3.42;;;;;;;-146.19;100.00;58918.88;5023536;28;20068;-45
2022/06/14 08:20:31;;;;;;;7.03;3.70;;;;;;;-146.19;100.00;58918.88;5019403;28;20073;-42
2022/06/14 08:23:02;;;;;;;7.93;3.50;;;;;;;-146.19;100.00;58918.88;5023728;28;20076;-49
2022/06/14 08:25:33;;;;;;;10.02;4.18;;;;;;;-146.19;100.00;58918.88;5015931;28;20080;-49
2022/06/14 08:28:06;;;;;;;7.72;3.50;;;;;;;-146.19;100.00;58918.88;5025708;28;20458;-48
2022/06/14 08:30:37;;;;;;;7.78;3.90;;;;;;;-146.19;100.00;58918.88;5025174;28;20092;-47
2022/06/14 08:33:10;;;;;;;5.63;3.67;;;;;;;-146.19;100.00;58918.88;5025326;28;20076;-47
2022/06/14 08:35:43;;;;;;;7.82;3.72;;;;;;;-146.19;100.00;58918.88;5023300;28;20554;-49
2022/06/14 08:38:13;;;;;;;5.60;3.60;;;;;;;-146.19;100.00;58918.88;5020881;28;20338;-51
2022/06/14 08:40:56;;;;;;;5.50;3.35;;;;;;;-146.19;100.00;58918.88;5025856;28;20447;-52
2022/06/14 08:43:25;;;;;;;;;;;;;;;-146.19;100.00;58918.88;5026539;28;20057;-49
2022/06/14 08:46:12;;;;;;;8.40;4.00;;;;;;;-146.19;100.00;58918.88;5024940;28;19968;-46
2022/06/14 08:48:42;;;;;;;7.20;3.95;;;;;;;-146.19;100.00;58918.88;5023732;28;20453;-53
2022/06/14 08:51:14;;;;;;;8.98;3.60;;;;;;;-146.19;100.00;58918.88;5022515;28;20065;-49
2022/06/14 08:54:18;;;;;;;7.07;3.70;;;;;;;-146.19;100.00;58918.88;5027140;28;20088;-44
2022/06/14 08:57:18;;;;;;;8.30;3.50;;;;;;;-146.19;100.00;58918.88;5027183;28;20085;-50
2022/06/14 09:00:25;;;;;;;9.18;3.80;;;;;;;-146.19;100.00;58918.88;5026372;28;20091;-46
2022/06/14 09:03:29;;;;;;;6.68;3.72;;;;;;;-146.19;100.00;58918.88;5018358;28;20081;-46
2022/06/14 09:06:38;;;;;;;6.63;3.35;;;;;;;-146.19;100.00;58918.88;5020266;28;20057;-47
2022/06/14 09:09:29;;;;;;;10.57;3.50;;;;;;;-146.19;100.00;58918.88;5022309;28;20061;-45
2022/06/14 09:12:26;;;;;;;8.50;3.90;;;;;;;-146.19;100.00;58918.88;5027520;28;20096;-46
2022/06/14 09:15:25;;;;;;;10.30;3.78;;;;;;;-146.19;100.00;58918.88;5028309;28;20061;-50
2022/06/14 09:18:12;;;;;;;5.72;3.13;;;;;;;-146.19;100.00;58918.88;5015309;28;20073;-52
2022/06/14 09:20:48;;;;;;;7.55;3.20;;;;;;;-146.19;100.00;58918.88;5029296;28;20095;-46
2022/06/14 09:23:21;;;;;;;8.00;3.45;;;;;;;-146.19;100.00;58918.88;5030377;28;20531;-47
2022/06/14 09:26:11;;;;;;;7.63;3.30;;;;;;;-146.19;100.00;58918.88;5029999;28;20061;-47
2022/06/14 09:29:24;;;;;;;7.22;3.22;;;;;;;-146.19;100.00;58918.88;5025764;28;20076;-46
2022/06/14 09:32:20;;;;;;;10.55;3.50;;;;;;;-146.19;100.00;58918.88;5014464;28;20076;-46
2022/06/14 09:35:00;;;;;;;7.95;3.22;;;;;;;-146.19;100.00;58918.88;5026562;28;20065;-47
2022/06/14 09:37:55;;;;;;;7.32;3.22;;;;;;;-146.19;100.00;58918.88;5022414;28;20061;-54
2022/06/14 09:40:31;;;;;;;6.28;3.28;;;;;;;-146.19;100.00;58918.88;5024039;28;20547;-50
2022/06/14 09:43:18;;;;;;;9.35;3.30;;;;;;;-146.19;100.00;58918.88;5022568;28;20606;-48
2022/06/14 09:46:04;;;;;;;5.68;3.65;;;;;;;-146.19;100.00;58918.88;5018209;28;20129;-45
2022/06/14 09:49:13;;;;;;;6.22;2.92;;;;;;;-146.19;100.00;58918.88;5023596;28;20068;-46
2022/06/14 09:52:21;;;;;;;6.43;3.05;;;;;;;-146.19;100.00;58918.88;5022769;28;20933;-50
2022/06/14 09:55:17;;;;;;;10.43;2.80;;;;;;;-146.19;100.00;58918.88;5005869;28;20061;-50
2022/06/14 09:58:14;;;;;;;5.40;2.65;;;;;;;-146.19;100.00;58918.88;5029269;28;20057;-47
2022/06/14 10:00:47;;;;;;;6.10;3.00;;;;;;;-146.19;100.00;58918.88;5029432;28;20061;-47
2022/06/14 10:03:44;;;;;;;8.35;2.63;;;;;;;-146.19;100.00;58918.88;5026921;28;20432;-45
2022/06/14 10:06:42;;;;;;;8.38;3.28;;;;;;;-146.19;100.00;58918.88;5021102;28;20676;-47
2022/06/14 10:09:32;;;;;;;6.68;3.00;;;;;;;-146.19;100.00;58918.88;5024261;28;20069;-48
2022/06/14 10:12:14;;;;;;;9.90;3.50;;;;;;;-146.19;100.00;58918.88;5024608;28;20634;-45
2022/06/14 10:14:52;;;;;;;7.30;3.50;;;;;;;-146.19;100.00;58918.88;5025397;28;20263;-47
2022/06/14 10:17:42;;;;;;;6.28;2.95;;;;;;;-146.19;100.00;58918.88;5024340;28;20472;-48
2022/06/14 10:20:32;;;;;;;6.32;3.00;;;;;;;-146.19;100.00;58918.88;5023118;28;20077;-45
2022/06/14 10:23:13;;;;;;;7.93;2.97;;;;;;;-146.19;100.00;58918.88;5022408;28;20504;-45
2022/06/14 10:28:40;;;;;;;6.70;3.20;;;;;;;-146.19;100.00;58918.88;5022903;28;20075;-48
2022/06/14 10:31:14;;;;;;;7.53;3.17;;;;;;;-146.19;100.00;58918.88;5023640;28;20589;-47
2022/06/14 10:33:47;;;;;;;6.00;2.90;;;;;;;-146.19;100.00;58918.88;5019704;28;20065;-49
2022/06/14 10:36:35;;;;;;;6.70;2.90;;;;;;;-146.19;100.00;58918.88;5010485;28;20061;-48
2022/06/14 10:39:31;;;;;;;7.57;4.00;;;;;;;-146.19;100.00;58918.88;5016400;28;20068;-49
2022/06/14 10:42:06;;;;;;;6.55;2.72;;;;;;;-146.19;100.00;58918.88;5015769;28;20519;-51
2022/06/14 10:44:42;;;;;;;6.28;2.80;;;;;;;-146.19;100.00;58918.88;5026202;28;20085;-49
2022/06/14 10:47:17;;;;;;;6.70;3.25;;;;;;;-146.19;100.00;58918.88;5017531;28;21535;-45
2022/06/14 10:50:07;;;;;;;7.47;3.35;;;;;;;-146.19;100.00;58918.88;5024704;28;20535;-49
2022/06/14 10:52:43;;;;;;;6.15;3.25;;;;;;;-146.19;100.00;58918.88;5019899;28;20078;-52
2022/06/14 10:55:28;;;;;;;5.95;3.15;;;;;;;-146.19;100.00;58918.88;5020452;28;20065;-49
2022/06/14 10:58:18;;;;;;;7.25;3.10;;;;;;;-146.19;100.00;58918.88;5018364;28;20073;-50
2022/06/14 11:00:50;;;;;;;5.10;3.17;;;;;;;-146.19;100.00;58918.88;5009175;28;20473;-44
2022/06/14 11:03:34;;;;;;;6.47;3.17;;;;;;;-146.19;100.00;58918.88;5021994;28;20069;-47
2022/06/14 11:06:37;;;;;;;7.55;3.00;;;;;;;-146.19;100.00;58918.88;5022600;28;20068;-48
2022/06/14 11:09:13;;;;;;;9.65;3.40;;;;;;;-146.19;100.00;58918.88;5010717;28;20062;-50
2022/06/14 11:11:54;;;;;;;6.15;3.20;;;;;;;-146.19;100.00;58918.88;5028857;28;20084;-46
2022/06/14 11:14:28;;;;;;;6.35;2.88;;;;;;;-146.19;100.00;58918.88;5019615;28;20085;-47
2022/06/14 11:17:26;;;;;;;8.45;3.28;;;;;;;-146.19;100.00;58918.88;5020145;28;20082;-50
2022/06/14 11:20:06;;;;;;;7.72;3.17;;;;;;;-146.19;100.00;58918.88;5011625;28;20076;-50
2022/06/14 11:22:39;;;;;;;6.40;3.20;;;;;;;-146.19;100.00;58918.88;5022888;28;20072;-49
2022/06/14 11:25:16;;;;;;;5.93;3.03;;;;;;;-146.19;100.00;58918.88;5026248;28;20068;-48
2022/06/14 11:27:52;;;;;;;8.45;3.38;;;;;;;-146.19;100.00;58918.88;5023799;28;21436;-43
2022/06/14 11:30:26;;;;;;;6.88;3.58;;;;;;;-146.19;100.00;58918.88;5020254;28;20717;-53
2022/06/14 11:32:59;;;;;;;10.32;3.50;;;;;;;-146.19;100.00;58918.88;5018787;28;20112;-43
2022/06/14 11:35:47;;;;;;;6.45;3.00;;;;;;;-146.19;100.00;58918.88;5020589;28;20076;-44
2022/06/14 11:38:32;;;;;;;8.85;3.38;;;;;;;-146.19;100.00;58918.88;5021750;28;20468;-48
2022/06/14 11:41:05;;;;;;;6.97;2.92;;;;;;;-146.19;100.00;58918.88;5023134;28;20068;-47
2022/06/14 11:43:46;;;;;;;7.53;3.13;;;;;;;-146.19;100.00;58918.88;5023719;28;20103;-45
2022/06/14 11:46:23;;;;;;;8.00;3.28;;;;;;;-146.19;100.00;58918.88;5020943;28;20114;-48
2022/06/14 11:48:57;;;;;;;6.32;3.15;;;;;;;-146.19;100.00;58918.88;5024094;28;20061;-44
2022/06/14 11:51:32;;;;;;;9.02;3.67;;;;;;;-146.19;100.00;58918.88;5023795;28;20452;-44
2022/06/14 11:54:20;;;;;;;7.88;3.55;;;;;;;-146.19;100.00;58918.88;5018328;28;20073;-50
2022/06/14 11:56:55;;;;;;;6.45;3.20;;;;;;;-146.19;100.00;58918.88;5025687;28;20469;-50
2022/06/14 11:59:53;;;;;;;6.22;3.30;;;;;;;-146.19;100.00;58918.88;5019467;28;20459;-48
2022/06/14 12:02:57;;;;;;;7.90;3.22;;;;;;;-146.19;100.00;58918.88;5022716;28;20545;-49
2022/06/14 12:05:35;;;;;;;5.95;2.92;;;;;;;-146.19;100.00;58918.88;5028521;28;20084;-47